Time;durP1;ratioP1;P1;durP2;ratioP2;P2;SDS_P1;SDS_P2;PMS_P1;PMS_P2;Temp;Humidity;BMP_temperature;BMP_pressure;BME280_temperature;BME280_humidity;BME280_pressure;Samples;Min_cycle;Max_cycle;Signal;HPM_P1;HPM_P2
2022/01/08 00:01:02;;;;;;;28.00;17.75;;;;;;;-0.33;100.00;101036.41;5017025;28;20072;-74
2022/01/08 00:03:27;;;;;;;27.17;17.67;;;;;;;-0.29;100.00;101047.34;5034926;28;20036;-81
2022/01/08 00:05:56;;;;;;;29.60;17.42;;;;;;;-0.32;100.00;101043.16;5035123;28;20481;-83
2022/01/08 00:08:22;;;;;;;27.55;18.25;;;;;;;-0.42;100.00;101034.00;5034884;28;20025;-75
2022/01/08 00:10:47;;;;;;;30.45;17.33;;;;;;;-0.50;100.00;101022.28;5036070;28;20036;-77
2022/01/08 00:13:12;;;;;;;28.95;17.65;;;;;;;-0.56;100.00;101020.69;5034701;28;20466;-74
2022/01/08 00:15:38;;;;;;;29.45;18.33;;;;;;;-0.63;100.00;101012.31;5034494;28;20029;-73
2022/01/08 00:18:03;;;;;;;28.58;17.50;;;;;;;-0.49;100.00;101034.09;5035510;28;20040;-88
2022/01/08 00:20:32;;;;;;;27.25;18.15;;;;;;;-0.47;100.00;101047.63;5039375;28;20034;-88
2022/01/08 00:22:57;;;;;;;29.27;17.63;;;;;;;-0.44;100.00;101063.63;5039929;28;20025;-87
2022/01/08 00:25:23;;;;;;;25.75;17.60;;;;;;;-0.44;100.00;101063.63;5043197;28;20025;-93
2022/01/08 00:27:48;;;;;;;30.17;17.35;;;;;;;-0.56;100.00;101045.22;5044167;28;20033;-91
2022/01/08 00:30:13;;;;;;;27.90;16.83;;;;;;;-0.44;100.00;101058.56;5045036;28;20041;-92
2022/01/08 00:32:40;;;;;;;25.98;16.75;;;;;;;-0.43;100.00;101059.38;5046396;28;20061;-94
2022/01/08 00:35:08;;;;;;;31.63;17.85;;;;;;;-0.57;100.00;101046.91;5048231;28;20061;-87
2022/01/08 00:37:34;;;;;;;28.58;16.70;;;;;;;-0.60;100.00;101050.31;5051329;28;20033;-95
2022/01/08 00:40:00;;;;;;;28.50;16.60;;;;;;;-0.46;100.00;101083.09;5048780;28;20028;-72
2022/01/08 00:42:26;;;;;;;27.42;16.85;;;;;;;-0.68;100.00;101043.69;5048084;28;20025;-93
2022/01/08 00:44:51;;;;;;;28.98;17.15;;;;;;;-0.72;100.00;101029.34;5048734;28;20017;-88
2022/01/08 00:47:16;;;;;;;24.38;16.73;;;;;;;-0.45;100.00;101079.72;5046127;28;20037;-94
2022/01/08 00:49:41;;;;;;;29.50;17.17;;;;;;;-0.70;100.00;101050.44;5047107;28;20032;-94
2022/01/08 00:52:07;;;;;;;30.10;17.15;;;;;;;-0.57;100.00;101068.91;5045655;28;20060;-89
2022/01/08 00:54:35;;;;;;;32.33;18.20;;;;;;;-0.44;100.00;101108.44;5045633;28;20029;-94
2022/01/08 00:57:01;;;;;;;30.00;17.25;;;;;;;-0.45;100.00;101102.53;5045691;28;20434;-94
2022/01/08 00:59:26;;;;;;;26.13;18.35;;;;;;;-0.38;100.00;101091.47;5041400;28;20029;-89
2022/01/08 01:01:52;;;;;;;31.55;18.73;;;;;;;-0.28;100.00;101104.84;5041051;28;20167;-94
2022/01/08 01:04:17;;;;;;;26.77;17.90;;;;;;;-0.25;100.00;101088.75;5042535;28;20110;-93
2022/01/08 01:06:42;;;;;;;28.92;17.90;;;;;;;-0.17;100.00;101094.56;5043840;28;20097;-93
2022/01/08 01:09:07;;;;;;;26.40;16.65;;;;;;;-0.17;100.00;101089.47;5043887;28;20025;-93
2022/01/08 01:11:33;;;;;;;24.63;16.15;;;;;;;-0.20;100.00;101089.50;5046417;28;20030;-93
2022/01/08 01:13:58;;;;;;;23.30;15.68;;;;;;;-0.25;100.00;101089.56;5041125;28;20029;-92
2022/01/08 01:16:23;;;;;;;23.92;15.02;;;;;;;-0.34;100.00;101085.47;5038911;28;20045;-92
2022/01/08 01:18:49;;;;;;;24.60;14.95;;;;;;;-0.41;100.00;101086.41;5040324;28;20026;-93
2022/01/08 01:21:14;;;;;;;24.13;14.65;;;;;;;-0.44;100.00;101083.09;5043508;28;20041;-95
2022/01/08 01:23:42;;;;;;;26.60;14.52;;;;;;;-0.57;100.00;101064.66;5044370;28;20030;-94
2022/01/08 01:26:13;;;;;;;27.33;14.50;;;;;;;-0.51;100.00;101082.31;5043003;28;20029;-90
2022/01/08 01:47:01;;;;;;;25.45;16.27;;;;;;;-0.85;100.00;101081.91;5043164;28;20063;-85
2022/01/08 01:49:27;;;;;;;28.58;16.83;;;;;;;-0.86;100.00;101087.84;5045446;28;20040;-94
2022/01/08 01:51:53;;;;;;;27.67;16.10;;;;;;;-0.76;100.00;101102.09;5047072;28;20034;-82
2022/01/08 01:54:18;;;;;;;28.00;16.95;;;;;;;-0.75;100.00;101105.47;5046574;28;20124;-91
2022/01/08 01:56:44;;;;;;;28.83;17.30;;;;;;;-0.88;100.00;101075.19;5047001;28;20014;-94
2022/01/08 01:59:09;;;;;;;27.02;16.48;;;;;;;-1.07;100.00;101045.84;5045510;28;20189;-94
2022/01/08 02:01:38;;;;;;;28.25;18.13;;;;;;;-0.88;100.00;101082.81;5045877;28;20105;-94
2022/01/08 02:04:03;;;;;;;32.80;18.02;;;;;;;-0.82;100.00;101086.09;5045979;28;20017;-94
2022/01/08 02:06:28;;;;;;;32.90;17.88;;;;;;;-0.89;100.00;101082.78;5046401;28;20033;-96
2022/01/08 02:08:54;;;;;;;31.17;17.67;;;;;;;-0.83;100.00;101086.97;5046094;28;20021;-94
2022/01/08 02:11:20;;;;;;;31.88;18.75;;;;;;;-0.85;100.00;101092.06;5045467;28;20025;-95
2022/01/08 02:13:46;;;;;;;32.25;18.65;;;;;;;-0.87;100.00;101092.09;5044098;28;20028;-93
2022/01/08 02:16:17;;;;;;;32.80;19.73;;;;;;;-1.05;100.00;101064.41;5045271;28;20030;-94
2022/01/08 02:18:45;;;;;;;36.35;19.58;;;;;;;-0.91;100.00;101092.13;5044072;28;20029;-90
2022/01/08 02:21:12;;;;;;;34.65;20.75;;;;;;;-1.11;100.00;101056.88;5045554;28;20085;-94
2022/01/08 02:23:38;;;;;;;34.17;19.85;;;;;;;-0.90;100.00;101096.31;5050419;28;20029;-92
2022/01/08 02:26:09;;;;;;;31.08;20.55;;;;;;;-0.93;100.00;101091.31;5046563;28;20147;-95
2022/01/08 02:28:36;;;;;;;31.02;20.23;;;;;;;-1.06;100.00;101080.47;5043455;28;20503;-94
2022/01/08 02:31:01;;;;;;;35.42;21.55;;;;;;;-0.91;100.00;101098.03;5039379;28;20025;-95
2022/01/08 02:33:28;;;;;;;45.45;23.42;;;;;;;-0.90;100.00;101096.31;5038948;28;20120;-72
2022/01/08 02:35:53;;;;;;;37.55;22.85;;;;;;;-1.07;100.00;101065.28;5035568;28;20022;-72
2022/01/08 02:38:19;;;;;;;37.35;22.23;;;;;;;-1.05;100.00;101084.69;5035928;28;20051;-74
2022/01/08 02:41:00;;;;;;;40.08;23.60;;;;;;;-1.03;100.00;101093.09;5035580;28;20031;-73
2022/01/08 02:43:28;;;;;;;38.67;23.15;;;;;;;-0.96;100.00;101099.78;5035370;28;20022;-73
2022/01/08 02:45:53;;;;;;;41.97;24.90;;;;;;;-0.94;100.00;101100.59;5035249;28;20048;-73
2022/01/08 02:48:19;;;;;;;39.60;25.23;;;;;;;-0.93;100.00;101109.03;5035651;28;20038;-73
2022/01/08 02:50:44;;;;;;;43.42;25.48;;;;;;;-0.91;100.00;101112.41;5035265;28;20423;-73
2022/01/08 02:53:09;;;;;;;44.35;26.17;;;;;;;-0.92;100.00;101105.66;5036862;28;20014;-91
2022/01/08 02:55:36;;;;;;;45.13;27.25;;;;;;;-1.07;100.00;101076.25;5041221;28;20017;-73
2022/01/08 02:58:02;;;;;;;42.15;25.95;;;;;;;-0.91;100.00;101108.16;5038620;28;20022;-73
2022/01/08 03:00:28;;;;;;;43.17;26.08;;;;;;;-0.98;100.00;101096.44;5038108;28;20017;-80
2022/01/08 03:02:53;;;;;;;43.13;24.83;;;;;;;-1.02;100.00;101084.63;5037903;28;20385;-81
2022/01/08 03:05:19;;;;;;;42.28;24.90;;;;;;;-1.27;100.00;101042.72;5036267;28;20489;-76
2022/01/08 03:07:46;;;;;;;43.65;25.50;;;;;;;-0.97;100.00;101098.13;5037493;28;20022;-94
2022/01/08 03:10:14;;;;;;;43.33;24.92;;;;;;;-0.95;100.00;101098.94;5041473;28;20032;-94
2022/01/08 03:12:42;;;;;;;43.05;24.13;;;;;;;-0.91;100.00;101108.16;5040290;28;20044;-94
2022/01/08 03:15:17;;;;;;;42.17;26.02;;;;;;;-0.98;100.00;101093.06;5042690;28;20026;-92
2022/01/08 03:17:43;;;;;;;46.15;25.38;;;;;;;-1.06;100.00;101080.47;5035767;28;20037;-73
2022/01/08 03:20:12;;;;;;;41.85;26.00;;;;;;;-0.91;100.00;101097.19;5034803;28;20027;-80
2022/01/08 03:22:39;;;;;;;46.05;24.90;;;;;;;-0.93;100.00;101101.44;5035406;28;20469;-87
2022/01/08 03:25:06;;;;;;;45.15;25.08;;;;;;;-0.97;100.00;101103.19;5035108;28;20064;-73
2022/01/08 03:27:31;;;;;;;44.45;25.08;;;;;;;-0.97;100.00;101102.34;5034659;28;20041;-73
2022/01/08 03:29:57;;;;;;;39.10;23.98;;;;;;;-1.28;100.00;101054.53;5034535;28;20050;-79
2022/01/08 03:32:23;;;;;;;36.40;23.35;;;;;;;-1.08;100.00;101086.38;5034005;28;20065;-73
2022/01/08 03:34:48;;;;;;;38.15;24.05;;;;;;;-1.18;100.00;101073.84;5034903;28;20109;-73
2022/01/08 03:37:14;;;;;;;41.85;23.45;;;;;;;-0.98;100.00;101118.41;5034601;28;20060;-76
2022/01/08 03:39:39;;;;;;;39.20;23.45;;;;;;;-0.98;100.00;101111.66;5034213;28;20060;-72
2022/01/08 03:42:04;;;;;;;40.50;24.25;;;;;;;-1.04;100.00;101099.03;5034425;28;20025;-73
2022/01/08 03:44:30;;;;;;;39.70;22.77;;;;;;;-1.07;100.00;101106.69;5034354;28;20059;-73
2022/01/08 03:47:11;;;;;;;45.22;24.23;;;;;;;-1.16;100.00;101096.63;5034401;28;20425;-73
2022/01/08 03:49:36;;;;;;;40.00;23.23;;;;;;;-1.06;100.00;101123.56;5034281;28;20022;-74
2022/01/08 03:52:02;;;;;;;39.63;22.27;;;;;;;-1.16;100.00;101117.75;5016387;28;20120;-73
2022/01/08 03:54:28;;;;;;;39.95;22.92;;;;;;;-1.39;100.00;101068.97;5033931;28;20029;-77
2022/01/08 03:56:53;;;;;;;37.38;22.77;;;;;;;-1.45;100.00;101059.75;5034158;28;20071;-75
2022/01/08 03:59:18;;;;;;;41.42;24.48;;;;;;;-1.28;100.00;101090.00;5034149;28;20109;-73
2022/01/08 04:01:44;;;;;;;40.17;23.13;;;;;;;-1.14;100.00;101110.13;5016230;28;20037;-76
2022/01/08 04:04:09;;;;;;;37.47;22.80;;;;;;;-1.17;100.00;101112.69;5034128;28;20021;-74
2022/01/08 04:06:34;;;;;;;40.53;23.70;;;;;;;-1.18;100.00;101116.06;5033925;28;20090;-73
2022/01/08 04:09:00;;;;;;;36.50;23.25;;;;;;;-1.26;100.00;101110.25;5033777;28;20416;-74
2022/01/08 04:11:26;;;;;;;40.47;23.30;;;;;;;-1.24;100.00;101114.44;5033874;28;20025;-73
2022/01/08 04:13:53;;;;;;;44.38;24.25;;;;;;;-1.32;100.00;101111.13;5033834;28;20095;-73
2022/01/08 04:16:25;;;;;;;42.40;23.38;;;;;;;-1.32;100.00;101105.22;5034114;28;20112;-72
2022/01/08 04:18:50;;;;;;;39.30;23.08;;;;;;;-1.40;100.00;101097.69;5033822;28;20026;-73
2022/01/08 04:23:44;;;;;;;40.63;24.17;;;;;;;-1.43;100.00;101097.75;5033886;28;20040;-73
2022/01/08 04:26:09;;;;;;;41.63;23.20;;;;;;;-1.37;100.00;101117.97;5033655;28;20034;-73
2022/01/08 04:28:35;;;;;;;41.15;22.75;;;;;;;-1.27;100.00;101131.38;5035248;28;20049;-91
2022/01/08 04:31:00;;;;;;;40.70;23.95;;;;;;;-1.26;100.00;101144.03;5035504;28;20063;-93
2022/01/08 04:33:25;;;;;;;37.50;23.88;;;;;;;-1.30;100.00;101138.97;5035328;28;20022;-94
2022/01/08 04:35:51;;;;;;;37.65;23.23;;;;;;;-1.23;100.00;101153.28;5035028;28;20037;-93
2022/01/08 04:38:16;;;;;;;49.47;25.92;;;;;;;-1.24;100.00;101144.84;5018044;28;20033;-95
2022/01/08 04:40:41;;;;;;;40.55;25.48;;;;;;;-1.38;100.00;101120.47;5035234;28;20033;-93
2022/01/08 04:43:07;;;;;;;41.92;24.90;;;;;;;-1.35;100.00;101133.13;5033793;28;20026;-95
2022/01/08 04:45:32;;;;;;;43.28;25.25;;;;;;;-1.38;100.00;101123.00;5033971;28;20408;-77
2022/01/08 04:48:00;;;;;;;40.95;24.63;;;;;;;-1.26;100.00;101145.72;5033315;28;20021;-73
2022/01/08 04:50:27;;;;;;;38.75;24.77;;;;;;;-1.60;100.00;101087.75;5032905;28;20032;-74
2022/01/08 04:52:54;;;;;;;37.47;24.25;;;;;;;-1.43;100.00;101129.81;5033107;28;20025;-74
2022/01/08 04:55:20;;;;;;;41.70;25.13;;;;;;;-1.44;100.00;101139.13;5033280;28;20025;-76
2022/01/08 04:57:46;;;;;;;44.83;25.13;;;;;;;-1.32;100.00;101159.28;5033121;28;20030;-77
2022/01/08 05:00:13;;;;;;;39.05;25.02;;;;;;;-1.33;100.00;101164.34;5033057;28;20425;-75
2022/01/08 05:02:39;;;;;;;41.47;25.95;;;;;;;-1.57;100.00;101122.38;5033308;28;20033;-73
2022/01/08 05:05:04;;;;;;;43.28;25.63;;;;;;;-1.34;100.00;101162.69;5032955;28;20029;-72
2022/01/08 05:07:30;;;;;;;37.65;24.95;;;;;;;-1.36;100.00;101162.69;5033403;28;20033;-74
2022/01/08 05:09:55;;;;;;;45.80;27.05;;;;;;;-1.39;100.00;101155.09;5033203;28;20614;-73
2022/01/08 05:12:20;;;;;;;46.25;27.73;;;;;;;-1.40;100.00;101152.59;5033363;28;20029;-73
2022/01/08 05:14:46;;;;;;;39.60;27.00;;;;;;;-1.38;100.00;101159.31;5032899;28;20461;-73
2022/01/08 05:17:14;;;;;;;45.03;27.00;;;;;;;-1.39;100.00;101161.88;5032894;28;20091;-75
2022/01/08 05:19:50;;;;;;;39.65;26.80;;;;;;;-1.60;100.00;101133.34;5032432;28;20033;-74
2022/01/08 05:22:28;;;;;;;42.05;26.45;;;;;;;-1.56;100.00;101142.59;5032759;28;20028;-74
2022/01/08 05:24:55;;;;;;;47.88;28.70;;;;;;;-1.53;100.00;101160.28;5032784;28;20108;-74
2022/01/08 05:27:20;;;;;;;45.03;28.75;;;;;;;-1.43;100.00;101160.22;5032850;28;20034;-73
2022/01/08 05:29:48;;;;;;;45.40;28.48;;;;;;;-1.48;100.00;101162.78;5032358;28;20409;-72
2022/01/08 05:32:18;;;;;;;44.97;30.00;;;;;;;-1.55;100.00;101135.84;5032595;28;20041;-73
2022/01/08 05:34:45;;;;;;;47.67;29.13;;;;;;;-1.42;100.00;101160.19;5032603;28;20022;-73
2022/01/08 05:37:11;;;;;;;49.63;29.70;;;;;;;-1.38;100.00;101168.59;5032759;28;20057;-76
2022/01/08 05:39:37;;;;;;;53.70;30.40;;;;;;;-1.32;100.00;101171.94;5032819;28;20018;-74
2022/01/08 05:42:03;;;;;;;47.67;30.50;;;;;;;-1.39;100.00;101139.91;5032523;28;20029;-73
2022/01/08 05:44:28;;;;;;;49.38;30.50;;;;;;;-1.25;100.00;101144.88;5034742;28;20342;-94
2022/01/08 05:46:54;;;;;;;51.15;31.60;;;;;;;-1.09;100.00;101161.59;5038353;28;20068;-94
2022/01/08 05:49:19;;;;;;;50.28;31.65;;;;;;;-1.00;100.00;101178.41;5035243;28;20040;-94
2022/01/08 05:51:44;;;;;;;47.03;30.83;;;;;;;-0.96;100.00;101172.47;5035166;28;20033;-95
2022/01/08 05:54:10;;;;;;;45.85;28.88;;;;;;;-0.96;100.00;101168.22;5036455;28;20033;-94
2022/01/08 05:56:35;;;;;;;41.15;28.65;;;;;;;-1.07;100.00;101161.59;5040298;28;20030;-95
2022/01/08 05:59:01;;;;;;;48.28;28.05;;;;;;;-0.98;100.00;101182.63;5042231;28;20036;-94
2022/01/08 06:01:27;;;;;;;43.47;27.73;;;;;;;-0.97;100.00;101188.53;5039593;28;20029;-91
2022/01/08 06:03:52;;;;;;;47.63;28.13;;;;;;;-1.14;100.00;101165.03;5040052;28;20029;-94
2022/01/08 06:06:17;;;;;;;39.83;28.20;;;;;;;-1.02;100.00;101186.03;5038841;28;20045;-94
2022/01/08 06:08:43;;;;;;;43.65;26.88;;;;;;;-1.09;100.00;101178.47;5039379;28;20026;-94
2022/01/08 06:11:08;;;;;;;40.63;27.33;;;;;;;-1.12;100.00;101189.50;5040664;28;20028;-91
2022/01/08 06:13:33;;;;;;;41.45;28.23;;;;;;;-1.09;100.00;101194.53;5039839;28;20068;-94
2022/01/08 06:15:59;;;;;;;42.08;28.45;;;;;;;-1.32;100.00;101166.03;5040490;28;20091;-91
2022/01/08 06:18:24;;;;;;;45.53;29.30;;;;;;;-1.09;100.00;101204.66;5008363;28;20038;-94
2022/01/08 06:20:50;;;;;;;44.35;29.88;;;;;;;-1.06;100.00;101203.81;5042035;28;20105;-94
2022/01/08 06:23:15;;;;;;;48.58;30.77;;;;;;;-1.20;100.00;101179.41;5042071;28;20029;-93
2022/01/08 06:25:43;;;;;;;45.45;30.15;;;;;;;-1.00;100.00;101206.28;5044108;28;20032;-95
2022/01/08 06:28:12;;;;;;;51.35;30.65;;;;;;;-1.03;100.00;101193.66;5042348;28;20084;-92
2022/01/08 06:30:37;;;;;;;46.22;30.85;;;;;;;-0.98;100.00;101207.97;5045382;28;20109;-90
2022/01/08 06:33:03;;;;;;;48.55;30.25;;;;;;;-0.96;100.00;101203.72;5045578;28;20029;-89
2022/01/08 06:35:29;;;;;;;43.88;30.40;;;;;;;-0.96;100.00;101196.09;5039689;28;20096;-94
2022/01/08 06:37:54;;;;;;;41.80;28.85;;;;;;;-0.97;100.00;101196.13;5037499;28;20032;-95
2022/01/08 06:40:20;;;;;;;42.55;29.13;;;;;;;-0.94;100.00;101194.41;5038136;28;20030;-90
2022/01/08 06:42:45;;;;;;;44.00;28.10;;;;;;;-0.93;100.00;101193.53;5038592;28;20072;-89
2022/01/08 06:45:10;;;;;;;45.55;27.20;;;;;;;-0.94;100.00;101191.88;5039505;28;20079;-95
2022/01/08 06:47:36;;;;;;;36.65;27.05;;;;;;;-0.93;100.00;101180.03;5038985;28;20033;-95
2022/01/08 06:50:02;;;;;;;45.05;27.63;;;;;;;-0.97;100.00;101166.56;5043548;28;20033;-91
2022/01/08 06:52:27;;;;;;;43.17;26.77;;;;;;;-0.99;100.00;101173.31;5040805;28;20029;-94
2022/01/08 06:54:53;;;;;;;35.92;24.75;;;;;;;-0.93;100.00;101174.94;5040905;28;20087;-93
2022/01/08 06:57:18;;;;;;;42.15;26.30;;;;;;;-1.03;100.00;101164.06;5041167;28;20041;-94
2022/01/08 06:59:44;;;;;;;35.55;24.60;;;;;;;-1.09;100.00;101160.75;5038979;28;20033;-94
2022/01/08 07:02:09;;;;;;;37.83;24.70;;;;;;;-1.01;100.00;101186.84;5037087;28;20044;-80
2022/01/08 07:04:34;;;;;;;41.45;25.08;;;;;;;-1.16;100.00;101165.88;5036567;28;20511;-91
2022/01/08 07:07:00;;;;;;;44.08;25.17;;;;;;;-1.07;100.00;101189.47;5036020;28;20389;-92
2022/01/08 07:09:26;;;;;;;38.92;24.58;;;;;;;-1.16;100.00;101172.66;5019350;28;20042;-91
2022/01/08 07:11:51;;;;;;;35.85;24.58;;;;;;;-1.13;100.00;101177.69;5018649;28;20030;-84
2022/01/08 07:14:16;;;;;;;36.65;24.90;;;;;;;-1.18;100.00;101174.34;5015388;28;20075;-89
2022/01/08 07:16:41;;;;;;;35.45;23.38;;;;;;;-1.25;100.00;101170.19;4997380;28;20133;-82
2022/01/08 07:19:07;;;;;;;37.15;24.50;;;;;;;-1.29;100.00;101166.84;5015325;28;20026;-90
2022/01/08 07:21:32;;;;;;;40.50;24.45;;;;;;;-1.26;100.00;101171.06;5014856;28;20030;-85
2022/01/08 07:23:58;;;;;;;39.80;24.77;;;;;;;-1.24;100.00;101182.00;5014780;28;20041;-84
2022/01/08 07:26:23;;;;;;;38.88;25.80;;;;;;;-1.25;100.00;101175.28;5014887;28;20466;-84
2022/01/08 07:28:48;;;;;;;45.75;25.85;;;;;;;-1.27;100.00;101176.97;5014801;28;20375;-90
2022/01/08 07:31:14;;;;;;;37.50;24.77;;;;;;;-1.53;100.00;101132.44;5014936;28;20037;-90
2022/01/08 07:33:39;;;;;;;43.75;25.65;;;;;;;-1.30;100.00;101176.97;5014650;28;20029;-77
2022/01/08 07:36:04;;;;;;;43.20;26.80;;;;;;;-1.28;100.00;101168.53;5014746;28;20041;-75
2022/01/08 07:38:30;;;;;;;38.92;25.45;;;;;;;-1.22;100.00;101177.75;5014336;28;20034;-71
2022/01/08 07:40:55;;;;;;;43.58;25.65;;;;;;;-1.20;100.00;101176.88;5018613;28;20037;-75
2022/01/08 07:43:20;;;;;;;43.83;26.02;;;;;;;-1.29;100.00;101150.78;5024744;28;20037;-73
2022/01/08 07:45:46;;;;;;;43.58;25.80;;;;;;;-1.17;100.00;101178.56;5026223;28;20037;-72
2022/01/08 07:48:11;;;;;;;40.22;25.95;;;;;;;-1.11;100.00;101180.19;5024300;28;20087;-72
2022/01/08 07:50:38;;;;;;;42.75;26.42;;;;;;;-1.13;100.00;101167.53;5014497;28;20545;-71
2022/01/08 07:53:03;;;;;;;50.28;26.63;;;;;;;-1.09;100.00;101151.44;4996222;28;20121;-74
2022/01/08 07:55:29;;;;;;;44.40;27.08;;;;;;;-0.91;100.00;101168.16;5014528;28;20168;-79
2022/01/08 07:57:54;;;;;;;44.40;25.60;;;;;;;-0.96;100.00;101150.50;4996810;28;20033;-74
2022/01/08 08:00:19;;;;;;;44.95;25.15;;;;;;;-0.91;100.00;101153.78;5014338;28;20108;-72
2022/01/08 08:02:45;;;;;;;40.75;24.77;;;;;;;-0.79;100.00;101162.13;5014183;28;20108;-74
2022/01/08 08:05:11;;;;;;;46.20;24.40;;;;;;;-0.92;100.00;101144.50;5014147;28;20113;-74
2022/01/08 08:07:37;;;;;;;38.63;23.30;;;;;;;-0.89;100.00;101131.78;5013863;28;20367;-72
2022/01/08 08:10:12;;;;;;;38.95;23.40;;;;;;;-0.67;100.00;101156.94;5014201;28;20388;-74
2022/01/08 08:12:38;;;;;;;45.95;23.90;;;;;;;-0.64;100.00;101157.72;4996638;28;20033;-79
2022/01/08 08:15:05;;;;;;;44.28;23.52;;;;;;;-0.57;100.00;101158.50;5013936;28;20465;-79
2022/01/08 08:17:31;;;;;;;40.58;23.25;;;;;;;-0.54;100.00;101155.94;5013630;28;20029;-74
2022/01/08 08:19:56;;;;;;;37.28;20.50;;;;;;;-0.66;100.00;101129.03;5014076;28;20041;-80
2022/01/08 08:22:21;;;;;;;39.95;21.60;;;;;;;-0.47;100.00;101152.47;5013774;28;20032;-78
2022/01/08 08:24:47;;;;;;;31.55;20.15;;;;;;;-0.65;100.00;101115.47;5013654;28;20038;-76
2022/01/08 08:27:12;;;;;;;39.45;20.27;;;;;;;-0.42;100.00;101148.16;5013720;28;20058;-76
2022/01/08 08:29:40;;;;;;;35.55;20.20;;;;;;;-0.61;100.00;101106.97;5013700;28;20116;-89
2022/01/08 08:32:06;;;;;;;38.70;21.70;;;;;;;-0.53;100.00;101111.94;5013823;28;20496;-90
2022/01/08 08:34:31;;;;;;;36.22;21.30;;;;;;;-0.34;100.00;101141.28;5013552;28;20393;-78
2022/01/08 08:36:57;;;;;;;31.88;19.95;;;;;;;-0.50;100.00;101111.91;5013612;28;20034;-76
2022/01/08 08:39:22;;;;;;;35.15;20.58;;;;;;;-0.27;100.00;101139.53;5013538;28;20080;-77
2022/01/08 08:41:47;;;;;;;39.85;21.42;;;;;;;-0.24;100.00;101131.03;5014069;28;20109;-75
2022/01/08 08:44:13;;;;;;;36.50;23.17;;;;;;;-0.20;100.00;101135.19;5013487;28;20037;-74
2022/01/08 08:46:38;;;;;;;35.92;19.95;;;;;;;-0.32;100.00;101108.28;4995775;28;20065;-75
2022/01/08 08:49:03;;;;;;;35.60;21.30;;;;;;;-0.35;100.00;101095.66;4995572;28;20026;-74
2022/01/08 08:51:29;;;;;;;39.10;20.60;;;;;;;-0.22;100.00;101109.81;5013750;28;20033;-75
2022/01/08 08:53:54;;;;;;;36.05;20.38;;;;;;;-0.06;100.00;101129.06;5013388;28;20054;-78
2022/01/08 08:56:20;;;;;;;36.95;19.80;;;;;;;-0.05;100.00;101119.75;5013553;28;20481;-75
2022/01/08 08:58:45;;;;;;;32.67;19.95;;;;;;;0.04;100.00;101127.22;5013432;28;20026;-78
2022/01/08 09:01:11;;;;;;;40.85;20.33;;;;;;;-0.02;100.00;101118.00;5013216;28;20029;-78
2022/01/08 09:03:36;;;;;;;35.63;19.90;;;;;;;0.12;100.00;101129.66;5013037;28;20072;-75
2022/01/08 09:06:02;;;;;;;32.88;19.52;;;;;;;0.18;100.00;101135.47;5013418;28;20030;-90
2022/01/08 09:08:28;;;;;;;39.20;22.15;;;;;;;0.21;100.00;101137.97;5013488;28;20026;-75
2022/01/08 09:10:53;;;;;;;36.33;22.10;;;;;;;0.26;100.00;101136.19;5013441;28;20032;-74
2022/01/08 09:13:20;;;;;;;40.58;22.15;;;;;;;0.30;100.00;101134.47;5013562;28;20071;-87
2022/01/08 09:15:46;;;;;;;40.75;22.70;;;;;;;0.35;100.00;101136.91;4996091;28;20038;-92
2022/01/08 09:18:11;;;;;;;35.63;20.88;;;;;;;0.37;100.00;101130.09;5012963;28;20421;-88
2022/01/08 09:20:37;;;;;;;38.90;22.92;;;;;;;0.29;100.00;101107.34;5012933;28;20026;-92
2022/01/08 09:23:04;;;;;;;43.08;23.38;;;;;;;0.24;100.00;101083.75;4995514;28;20489;-75
2022/01/08 09:25:30;;;;;;;38.65;21.33;;;;;;;0.46;100.00;101118.09;5012785;28;20103;-91
2022/01/08 09:27:55;;;;;;;42.63;22.85;;;;;;;0.47;100.00;101109.59;5013685;28;20041;-93
2022/01/08 09:30:36;;;;;;;36.13;21.15;;;;;;;0.45;100.00;101092.72;5012343;28;20046;-88
2022/01/08 09:33:02;;;;;;;41.33;21.95;;;;;;;0.53;100.00;101098.50;4995030;28;20070;-94
2022/01/08 09:35:27;;;;;;;37.13;21.55;;;;;;;0.62;100.00;101103.44;5013313;28;20056;-87
2022/01/08 09:37:53;;;;;;;43.22;21.45;;;;;;;0.67;100.00;101100.78;5013235;28;20026;-86
2022/01/08 09:40:21;;;;;;;39.60;21.25;;;;;;;0.73;100.00;101093.91;5012767;28;20080;-87
2022/01/08 09:42:48;;;;;;;41.38;22.38;;;;;;;0.80;100.00;101095.47;5012685;28;20033;-91
2022/01/08 09:45:13;;;;;;;37.72;20.55;;;;;;;0.88;100.00;101102.09;5012414;28;20030;-90
2022/01/08 09:47:39;;;;;;;39.05;22.10;;;;;;;0.89;100.00;101083.47;5012827;28;20048;-90
2022/01/08 09:50:06;;;;;;;44.65;21.60;;;;;;;0.97;100.00;101089.22;5012844;28;20018;-89
2022/01/08 09:52:32;;;;;;;40.10;20.05;;;;;;;0.96;100.00;101090.94;5013080;28;20064;-88
2022/01/08 09:54:58;;;;;;;36.65;20.02;;;;;;;0.97;100.00;101079.03;5012642;28;20041;-88
2022/01/08 09:57:23;;;;;;;35.83;20.92;;;;;;;0.98;100.00;101068.84;5012822;28;20034;-89
2022/01/08 09:59:49;;;;;;;34.35;19.65;;;;;;;1.05;100.00;101065.31;5012578;28;20034;-87
2022/01/08 10:02:19;;;;;;;34.75;19.95;;;;;;;1.05;100.00;101039.06;5012637;28;20164;-86
2022/01/08 10:04:45;;;;;;;31.65;18.50;;;;;;;1.28;100.00;101052.16;5012471;28;20029;-87
2022/01/08 10:07:21;;;;;;;37.08;18.65;;;;;;;1.38;100.00;101048.53;5012439;28;20030;-82
2022/01/08 10:10:02;;;;;;;33.25;17.75;;;;;;;1.41;99.65;101035.75;5012305;28;20042;-85
2022/01/08 10:12:51;;;;;;;32.03;18.73;;;;;;;1.41;99.31;101017.94;5012372;28;20026;-85
2022/01/08 10:18:33;;;;;;;35.30;19.13;;;;;;;1.51;99.02;100994.81;5013040;28;20068;-93
2022/01/08 10:21:00;;;;;;;33.72;18.83;;;;;;;1.39;98.79;100950.97;5013265;28;20487;-79
2022/01/08 10:23:29;;;;;;;32.90;17.52;;;;;;;1.58;97.56;100976.84;5012344;28;20022;-80
2022/01/08 10:25:59;;;;;;;36.92;18.30;;;;;;;1.58;98.11;100965.81;5013677;28;20038;-84
2022/01/08 10:28:38;;;;;;;37.28;18.90;;;;;;;1.68;97.60;100970.66;5013795;28;20117;-80
2022/01/08 10:31:22;;;;;;;36.90;19.17;;;;;;;1.68;97.75;100962.19;5012322;28;20034;-78
2022/01/08 10:34:01;;;;;;;32.78;19.23;;;;;;;1.75;97.78;100961.13;5012764;28;20076;-80
2022/01/08 10:36:37;;;;;;;32.40;18.88;;;;;;;1.47;97.00;100911.78;5013132;28;20045;-78
2022/01/08 10:39:05;;;;;;;35.67;18.75;;;;;;;1.62;97.56;100935.16;5012602;28;20052;-84
2022/01/08 10:41:31;;;;;;;34.33;19.00;;;;;;;1.80;96.84;100943.22;5013072;28;20030;-78
2022/01/08 10:44:13;;;;;;;33.53;17.63;;;;;;;1.53;96.74;100896.38;5016419;28;20022;-88
2022/01/08 10:46:42;;;;;;;31.42;16.75;;;;;;;1.78;96.44;100927.16;5016355;28;20030;-90
2022/01/08 10:49:08;;;;;;;28.80;17.73;;;;;;;1.75;95.97;100919.56;5017321;28;20030;-88
2022/01/08 10:51:38;;;;;;;36.08;18.00;;;;;;;1.83;95.97;100928.69;5016557;28;20080;-83
2022/01/08 10:54:11;;;;;;;30.08;17.48;;;;;;;1.82;95.16;100916.84;5016552;28;20033;-90
2022/01/08 10:56:46;;;;;;;30.10;16.67;;;;;;;1.84;95.65;100911.69;5015858;28;20022;-90
2022/01/08 10:59:15;;;;;;;30.60;17.05;;;;;;;1.78;95.61;100891.50;5015400;28;20026;-89
2022/01/08 11:01:50;;;;;;;36.25;17.60;;;;;;;1.81;95.97;100886.34;4997733;28;20476;-88
2022/01/08 11:04:18;;;;;;;30.30;16.88;;;;;;;1.96;95.81;100881.66;4997747;28;20067;-91
2022/01/08 11:06:56;;;;;;;32.17;16.67;;;;;;;1.78;95.65;100845.69;5015373;28;20092;-90
2022/01/08 11:09:23;;;;;;;29.05;16.15;;;;;;;1.87;95.42;100853.91;5015219;28;20026;-89
2022/01/08 11:11:50;;;;;;;31.50;17.58;;;;;;;1.87;95.33;100841.19;5015327;28;20018;-91
2022/01/08 11:14:46;;;;;;;28.15;16.20;;;;;;;2.12;95.78;100871.91;4997580;28;20034;-90
2022/01/08 11:17:33;;;;;;;28.00;16.50;;;;;;;2.20;95.03;100862.34;5015094;28;20118;-86
2022/01/08 11:20:12;;;;;;;28.35;15.52;;;;;;;2.24;94.68;100853.72;5015512;28;20022;-89
2022/01/08 11:22:41;;;;;;;26.80;15.98;;;;;;;2.24;94.61;100843.53;5014945;28;20029;-81
2022/01/08 11:25:18;;;;;;;29.40;15.45;;;;;;;2.09;94.26;100810.03;5015291;28;20037;-85
2022/01/08 11:27:44;;;;;;;26.70;14.63;;;;;;;2.34;94.42;100836.47;5014942;28;20049;-88